Blaine Air Force Station, Washington
Current Conditions -  °F | °C
As of 3:53 PM on Sunday 25 Jan 2015 (Local Time) from KBLI Reporting Station
Clear Clear  
Wind Chill: 57°   Ceiling: Unl
Heat Index: 57°   Visibility: 10mi
Dew Point: 51°   Wind: 5mph
Humidity: 81%   Direction: 350°N
Pressure: 30.08"   Gusts: NA
Location:  48.9504°N, 122.711°W
Report Text: KBLI 252353Z 35004KT 10SM CLR 14/11 A3008 RMK AO2 SLP194 T01390106 10150 20117 56016 $
Loading
Personal Weather Stations






























Interactive Weather Map New forecast layout! Learn more

10-Day Weather Forecast

Advertisements
Track Severe Weather on mobile